createdAt,value
2019-02-18T00:00:48.074Z,44.50
2019-02-18T00:03:19.596Z,44.80
2019-02-18T00:05:51.196Z,44.70
2019-02-18T00:08:22.514Z,44.70
2019-02-18T00:10:53.995Z,44.70
2019-02-18T00:13:25.175Z,44.60
2019-02-18T00:15:56.614Z,44.60
2019-02-18T00:18:27.645Z,44.60
2019-02-18T00:20:58.640Z,44.50
2019-02-18T00:23:29.506Z,44.50
2019-02-18T00:26:00.692Z,44.50
2019-02-18T00:28:31.490Z,44.40
2019-02-18T00:31:02.144Z,44.40
2019-02-18T00:33:33.079Z,44.40
2019-02-18T00:36:04.002Z,44.40
2019-02-18T00:38:35.684Z,44.40
2019-02-18T00:41:07.015Z,44.40
2019-02-18T00:43:38.766Z,44.30
2019-02-18T00:46:09.916Z,44.30
2019-02-18T00:48:41.503Z,44.30
2019-02-18T00:51:12.715Z,44.20
2019-02-18T00:53:44.286Z,43.90
2019-02-18T00:56:15.317Z,44.30
2019-02-18T00:58:45.961Z,44.30
2019-02-18T01:01:16.838Z,44.30
2019-02-18T01:03:48.014Z,44.30
2019-02-18T01:06:19.158Z,44.30
2019-02-18T01:08:49.926Z,44.20
2019-02-18T01:11:20.798Z,44.10
2019-02-18T01:13:51.663Z,44.10
2019-02-18T01:16:23.018Z,44.10
2019-02-18T01:18:54.466Z,44.00
2019-02-18T01:21:26.226Z,44.10
2019-02-18T01:23:57.668Z,44.00
2019-02-18T01:26:29.234Z,44.00
2019-02-18T01:29:00.638Z,44.00
2019-02-18T01:31:32.318Z,44.00
2019-02-18T01:34:03.315Z,44.00
2019-02-18T01:36:33.998Z,44.00
2019-02-18T01:39:05.211Z,44.00
2019-02-18T01:41:36.130Z,44.00
2019-02-18T01:44:07.082Z,44.00
2019-02-18T01:46:37.889Z,44.00
2019-02-18T01:49:08.562Z,44.00
2019-02-18T01:51:39.665Z,44.00
2019-02-18T01:54:13.735Z,43.90
2019-02-18T01:56:45.309Z,44.00
2019-02-18T01:59:16.643Z,43.90
2019-02-18T02:01:47.818Z,43.80
2019-02-18T02:04:19.106Z,43.90
2019-02-18T02:06:50.441Z,43.80
2019-02-18T02:09:21.537Z,43.90
2019-02-18T02:11:52.318Z,44.00
2019-02-18T02:14:23.646Z,43.80
2019-02-18T02:16:54.353Z,43.60
2019-02-18T02:19:25.114Z,43.90
2019-02-18T02:21:56.118Z,43.90
2019-02-18T02:24:26.991Z,43.80
2019-02-18T02:26:58.129Z,43.80
2019-02-18T02:29:29.306Z,43.80
2019-02-18T02:32:00.189Z,43.80
2019-02-18T02:34:31.547Z,43.80
2019-02-18T02:37:03.104Z,43.70
2019-02-18T02:39:34.655Z,43.70
2019-02-18T02:42:05.956Z,43.70
2019-02-18T02:44:37.584Z,43.70
2019-02-18T02:47:09.211Z,43.70
2019-02-18T02:49:40.788Z,43.60
2019-02-18T02:52:11.638Z,43.70
2019-02-18T02:54:42.705Z,43.70
2019-02-18T02:57:13.599Z,44.40
2019-02-18T02:59:44.524Z,43.60
2019-02-18T03:02:15.763Z,43.60
2019-02-18T03:04:46.554Z,43.70
2019-02-18T03:07:17.654Z,43.70
2019-02-18T03:09:48.384Z,43.60
2019-02-18T03:12:19.689Z,43.60
2019-02-18T03:14:50.937Z,43.60
2019-02-18T03:17:22.320Z,43.60
2019-02-18T03:19:53.630Z,43.50
2019-02-18T03:22:24.946Z,43.60
2019-02-18T03:25:26.294Z,43.60
2019-02-18T03:28:25.142Z,43.60
2019-02-18T03:31:01.992Z,43.50
2019-02-18T03:33:43.685Z,43.50
2019-02-18T03:36:14.454Z,43.60
2019-02-18T03:38:45.238Z,43.60
2019-02-18T03:41:16.698Z,43.60
2019-02-18T03:43:47.881Z,43.60
2019-02-18T03:46:19.769Z,43.60
2019-02-18T03:48:51.021Z,43.50
2019-02-18T03:51:22.642Z,43.60
2019-02-18T03:53:54.196Z,43.50
2019-02-18T03:56:25.588Z,43.60
2019-02-18T03:58:56.962Z,43.70
2019-02-18T04:01:28.273Z,43.50
2019-02-18T04:03:59.397Z,43.50
2019-02-18T04:06:30.508Z,43.50
2019-02-18T04:09:01.486Z,43.50
2019-02-18T04:11:32.576Z,43.60
2019-02-18T04:14:03.269Z,43.60
2019-02-18T04:16:34.274Z,43.60
2019-02-18T04:19:05.403Z,43.50
2019-02-18T04:21:36.688Z,43.60
2019-02-18T04:24:07.941Z,43.60
2019-02-18T04:26:43.272Z,43.50
2019-02-18T04:29:15.021Z,43.50
2019-02-18T04:31:46.404Z,43.40
2019-02-18T04:34:17.525Z,43.50
2019-02-18T04:36:48.308Z,43.40
2019-02-18T04:39:19.081Z,43.40
2019-02-18T04:41:49.953Z,43.40
2019-02-18T04:44:20.997Z,43.40
2019-02-18T04:46:52.293Z,43.40
2019-02-18T04:49:23.262Z,43.40
2019-02-18T04:51:54.418Z,43.40
2019-02-18T04:54:25.663Z,43.50
2019-02-18T04:56:57.307Z,43.60
2019-02-18T04:59:28.849Z,43.60
2019-02-18T05:02:00.268Z,43.60
2019-02-18T05:04:31.540Z,43.60
2019-02-18T05:07:03.010Z,43.60
2019-02-18T05:09:34.725Z,43.60
2019-02-18T05:12:05.642Z,43.60
2019-02-18T05:14:36.476Z,43.70
2019-02-18T05:17:07.792Z,43.60
2019-02-18T05:19:38.859Z,43.50
2019-02-18T05:22:10.048Z,43.50
2019-02-18T05:24:41.220Z,43.50
2019-02-18T05:27:12.252Z,43.60
2019-02-18T05:29:43.959Z,43.60
2019-02-18T05:32:15.479Z,43.50
2019-02-18T05:34:46.757Z,43.70
2019-02-18T05:37:18.064Z,43.80
2019-02-18T05:39:49.421Z,44.40
2019-02-18T05:42:21.070Z,47.40
2019-02-18T05:44:52.731Z,47.80
2019-02-18T05:47:23.811Z,48.10
2019-02-18T05:49:55.117Z,48.50
2019-02-18T05:52:26.533Z,48.10
2019-02-18T05:54:57.651Z,48.10
2019-02-18T05:57:28.437Z,47.70
2019-02-18T05:59:59.461Z,47.00
2019-02-18T06:02:30.830Z,46.20
2019-02-18T06:05:02.133Z,45.60
2019-02-18T06:07:33.562Z,45.10
2019-02-18T06:10:05.755Z,44.30
2019-02-18T06:12:37.238Z,43.50
2019-02-18T06:15:09.796Z,43.10
2019-02-18T06:17:40.890Z,42.80
2019-02-18T06:20:12.180Z,42.50
2019-02-18T06:22:43.450Z,42.50
2019-02-18T06:25:14.400Z,42.40
2019-02-18T06:27:45.218Z,42.30
2019-02-18T06:30:16.374Z,42.10
2019-02-18T06:32:47.584Z,42.20
2019-02-18T06:35:19.824Z,42.10
2019-02-18T06:37:51.359Z,42.10
2019-02-18T06:40:22.777Z,42.00
2019-02-18T06:42:54.269Z,41.90
2019-02-18T06:45:34.616Z,42.00
2019-02-18T06:48:22.134Z,41.80
2019-02-18T06:50:53.573Z,41.90
2019-02-18T06:53:24.336Z,41.90
2019-02-18T06:55:55.368Z,42.00
2019-02-18T06:58:35.896Z,42.80
2019-02-18T07:35:00.818Z,48.00
2019-02-18T07:37:32.589Z,47.50
2019-02-18T07:40:04.349Z,45.80
2019-02-18T07:42:36.575Z,44.20
2019-02-18T07:45:08.504Z,43.20
2019-02-18T07:47:40.256Z,42.40
2019-02-18T07:50:20.252Z,42.40
2019-02-18T07:52:45.077Z,41.30
2019-02-18T07:55:16.403Z,41.00
2019-02-18T07:57:48.284Z,40.90
2019-02-18T08:00:19.791Z,40.80
2019-02-18T08:02:51.685Z,40.70
2019-02-18T08:05:23.287Z,40.80
2019-02-18T08:07:55.050Z,40.60
2019-02-18T08:10:26.675Z,40.50
2019-02-18T08:12:59.136Z,40.30
2019-02-18T08:15:30.842Z,40.00
2019-02-18T08:18:02.574Z,39.70
2019-02-18T08:20:34.274Z,39.50
2019-02-18T08:23:05.915Z,39.30
2019-02-18T08:25:37.555Z,39.30
2019-02-18T08:28:09.710Z,39.10
2019-02-18T08:30:41.375Z,38.80
2019-02-18T08:33:12.556Z,38.70
2019-02-18T08:35:44.590Z,38.60
2019-02-18T08:38:16.289Z,38.50
2019-02-18T08:40:48.052Z,38.30
2019-02-18T08:43:19.907Z,38.30
2019-02-18T08:45:51.675Z,38.20
2019-02-18T08:48:24.179Z,38.20
2019-02-18T08:50:55.903Z,38.10
2019-02-18T08:53:28.815Z,38.10
2019-02-18T08:56:00.237Z,38.10
2019-02-18T08:58:32.121Z,38.10
2019-02-18T09:01:04.563Z,38.00
2019-02-18T09:03:36.319Z,38.00
2019-02-18T09:06:08.442Z,38.10
2019-02-18T09:08:40.279Z,38.00
2019-02-18T09:11:11.709Z,38.10
2019-02-18T09:13:43.486Z,38.00
2019-02-18T09:16:15.499Z,38.00
2019-02-18T09:18:47.459Z,38.10
2019-02-18T09:21:19.204Z,38.10
2019-02-18T09:24:09.957Z,38.00
2019-02-18T09:26:41.808Z,38.10
2019-02-18T09:29:13.271Z,37.90
2019-02-18T09:31:45.121Z,38.00
2019-02-18T09:34:16.675Z,38.00
2019-02-18T09:36:48.154Z,38.10
2019-02-18T09:39:30.576Z,38.00
2019-02-18T09:41:54.334Z,38.00
2019-02-18T09:44:26.063Z,38.80
2019-02-18T09:46:58.027Z,38.10
2019-02-18T09:49:29.694Z,38.00
2019-02-18T09:52:01.415Z,38.10
2019-02-18T09:54:33.497Z,38.00
2019-02-18T09:57:05.171Z,38.00
2019-02-18T09:59:36.771Z,38.00
2019-02-18T10:02:08.178Z,38.00
2019-02-18T10:04:40.047Z,38.10
2019-02-18T10:07:11.858Z,38.00
2019-02-18T10:09:43.758Z,38.00
2019-02-18T10:12:18.447Z,38.00
2019-02-18T10:14:48.562Z,38.10
2019-02-18T10:17:19.735Z,38.10
2019-02-18T10:19:51.375Z,38.10
2019-02-18T10:22:23.069Z,38.00
2019-02-18T10:55:29.259Z,39.10
2019-02-18T11:00:27.512Z,42.20
2019-02-18T11:02:59.278Z,41.80
2019-02-18T11:05:31.644Z,42.80
2019-02-18T11:08:03.764Z,45.30
2019-02-18T11:10:36.258Z,47.30
2019-02-18T11:13:08.444Z,49.40
2019-02-18T11:15:40.146Z,50.80
2019-02-18T11:18:11.942Z,51.70
2019-02-18T11:20:44.442Z,52.10
2019-02-18T11:23:16.392Z,52.40
2019-02-18T11:25:51.786Z,52.30
2019-02-18T11:28:32.557Z,52.10
2019-02-18T11:31:05.193Z,51.60
2019-02-18T11:33:37.274Z,51.70
2019-02-18T11:36:09.504Z,51.90
2019-02-18T11:38:41.414Z,52.70
2019-02-18T11:41:13.138Z,53.00
2019-02-18T11:43:45.088Z,53.60
2019-02-18T11:46:17.517Z,53.80
2019-02-18T11:48:49.636Z,53.70
2019-02-18T11:51:21.606Z,53.80
2019-02-18T11:53:53.687Z,53.60
2019-02-18T11:56:26.115Z,53.50
2019-02-18T11:58:58.258Z,54.20
2019-02-18T12:01:30.196Z,53.80
2019-02-18T12:04:01.925Z,54.00
2019-02-18T12:06:34.102Z,54.40
2019-02-18T12:09:06.450Z,54.60
2019-02-18T12:11:38.846Z,54.80
2019-02-18T12:14:10.833Z,55.00
2019-02-18T12:16:43.298Z,55.10
2019-02-18T12:19:15.440Z,55.10
2019-02-18T12:21:47.636Z,55.30
2019-02-18T12:24:19.906Z,55.30
2019-02-18T12:26:51.763Z,55.50
2019-02-18T12:29:26.442Z,55.70
2019-02-18T12:31:57.100Z,55.60
2019-02-18T12:34:28.972Z,55.60
2019-02-18T12:37:00.886Z,55.80
2019-02-18T12:39:32.684Z,56.40
2019-02-18T12:42:04.454Z,55.80
2019-02-18T12:44:36.294Z,55.90
2019-02-18T12:47:08.734Z,55.70
2019-02-18T12:49:41.174Z,56.20
2019-02-18T12:52:13.064Z,56.30
2019-02-18T12:54:44.860Z,56.30
2019-02-18T12:57:16.601Z,56.40
2019-02-18T12:59:49.008Z,56.70
2019-02-18T13:02:22.332Z,57.00
2019-02-18T13:04:54.312Z,56.80
2019-02-18T13:07:26.788Z,56.80
2019-02-18T13:09:58.926Z,56.90
2019-02-18T13:12:30.446Z,57.00
2019-02-18T13:15:02.684Z,57.20
2019-02-18T13:17:36.609Z,57.10
2019-02-18T13:20:09.083Z,57.20
2019-02-18T13:22:40.847Z,57.30
2019-02-18T13:25:13.104Z,57.80
2019-02-18T13:27:44.964Z,58.20
2019-02-18T13:30:17.555Z,58.30
2019-02-18T13:32:49.548Z,58.30
2019-02-18T13:35:21.618Z,58.30
2019-02-18T13:37:54.236Z,58.30
2019-02-18T13:40:26.560Z,58.20
2019-02-18T13:42:58.752Z,58.10
2019-02-18T13:45:30.614Z,58.20
2019-02-18T13:48:03.543Z,58.40
2019-02-18T13:50:35.862Z,58.50
2019-02-18T13:53:08.124Z,58.40
2019-02-18T13:55:40.058Z,58.40
2019-02-18T13:58:13.162Z,58.50
2019-02-18T14:00:45.307Z,58.50
2019-02-18T14:03:17.043Z,58.50
2019-02-18T14:05:49.257Z,58.40
2019-02-18T14:08:21.008Z,58.50
2019-02-18T14:10:53.410Z,58.70
2019-02-18T14:13:25.485Z,58.80
2019-02-18T14:15:57.572Z,59.40
2019-02-18T14:18:29.940Z,59.00
2019-02-18T14:21:02.437Z,59.10
2019-02-18T14:23:34.434Z,59.40
2019-02-18T14:26:06.996Z,59.60
2019-02-18T14:28:38.810Z,59.80
2019-02-18T14:31:10.998Z,60.00
2019-02-18T14:33:42.918Z,60.30
2019-02-18T14:36:15.083Z,61.40
2019-02-18T14:38:46.946Z,60.60
2019-02-18T14:41:19.452Z,60.80
2019-02-18T14:43:51.210Z,61.00
2019-02-18T14:46:22.978Z,61.10
2019-02-18T14:48:55.380Z,61.20
2019-02-18T14:51:27.461Z,61.50
2019-02-18T14:53:59.836Z,61.60
2019-02-18T14:56:31.794Z,61.90
2019-02-18T14:59:03.644Z,62.00
2019-02-18T15:01:37.573Z,62.30
2019-02-18T15:04:10.238Z,62.60
2019-02-18T15:06:42.239Z,63.20
2019-02-18T15:09:14.711Z,63.50
2019-02-18T15:11:47.659Z,63.80
2019-02-18T15:14:19.598Z,64.10
2019-02-18T15:16:51.367Z,64.40
2019-02-18T15:19:23.574Z,64.90
2019-02-18T15:21:55.182Z,65.10
2019-02-18T15:24:27.060Z,65.20
2019-02-18T15:26:59.738Z,65.30
2019-02-18T15:29:31.958Z,65.50
2019-02-18T15:32:12.603Z,65.70
2019-02-18T15:34:38.091Z,66.00
2019-02-18T15:37:10.392Z,66.30
2019-02-18T15:39:42.424Z,66.50
2019-02-18T15:42:14.635Z,67.00
2019-02-18T15:44:47.068Z,67.10
2019-02-18T15:47:19.172Z,67.10
2019-02-18T15:49:51.698Z,67.40
2019-02-18T15:52:23.788Z,67.60
2019-02-18T15:54:55.918Z,67.90
2019-02-18T15:57:28.005Z,68.30
2019-02-18T15:59:59.778Z,68.50
2019-02-18T16:02:31.982Z,68.80
2019-02-18T16:05:03.731Z,69.00
2019-02-18T16:07:35.698Z,69.10
2019-02-18T16:10:07.926Z,69.40
2019-02-18T16:12:40.080Z,69.70
2019-02-18T16:15:12.033Z,70.00
2019-02-18T16:17:44.290Z,70.20
2019-02-18T16:20:16.268Z,70.40
2019-02-18T16:22:47.814Z,70.60
2019-02-18T16:25:20.900Z,70.90
2019-02-18T16:27:52.610Z,71.10
2019-02-18T16:30:24.900Z,71.50
2019-02-18T16:32:58.131Z,71.70
2019-02-18T16:35:30.492Z,71.80
2019-02-18T16:38:04.209Z,71.90
2019-02-18T16:40:36.308Z,72.10
2019-02-18T16:43:08.175Z,72.40
2019-02-18T16:45:40.239Z,72.60
2019-02-18T16:48:12.997Z,72.60
2019-02-18T16:50:45.224Z,72.90
2019-02-18T16:53:17.339Z,73.20
2019-02-18T16:55:49.268Z,73.30
2019-02-18T16:58:21.688Z,73.30
2019-02-18T17:00:57.771Z,73.50
2019-02-18T17:03:28.853Z,73.60
2019-02-18T17:06:01.359Z,73.90
2019-02-18T17:08:33.579Z,74.00
2019-02-18T17:11:06.138Z,74.20
2019-02-18T17:13:39.214Z,74.30
2019-02-18T17:16:11.016Z,74.60
2019-02-18T17:18:42.976Z,74.60
2019-02-18T17:21:18.387Z,74.70
2019-02-18T17:23:50.600Z,74.90
2019-02-18T17:26:22.416Z,75.10
2019-02-18T17:28:54.184Z,75.20
2019-02-18T17:31:26.112Z,75.20
2019-02-18T17:33:57.946Z,75.30
2019-02-18T17:36:29.620Z,75.20
2019-02-18T17:39:01.571Z,75.30
2019-02-18T17:41:33.598Z,75.40
2019-02-18T17:44:05.736Z,75.80
2019-02-18T17:46:37.729Z,75.80
2019-02-18T17:49:09.806Z,75.80
2019-02-18T17:51:41.666Z,76.00
2019-02-18T17:54:13.902Z,76.00
2019-02-18T17:56:45.856Z,76.00
2019-02-18T17:59:17.742Z,76.00
2019-02-18T18:01:52.024Z,76.10
2019-02-18T18:04:26.571Z,76.10
2019-02-18T18:06:58.616Z,76.40
2019-02-18T18:09:30.964Z,76.70
2019-02-18T18:12:02.677Z,77.00
2019-02-18T18:14:34.821Z,77.30
2019-02-18T18:17:06.630Z,78.20
2019-02-18T18:19:38.426Z,77.50
2019-02-18T18:22:10.326Z,78.00
2019-02-18T18:24:42.527Z,77.90
2019-02-18T18:27:14.506Z,78.20
2019-02-18T18:29:46.174Z,78.40
2019-02-18T18:32:17.924Z,78.90
2019-02-18T18:34:49.895Z,78.90
2019-02-18T18:37:21.690Z,79.30
2019-02-18T18:39:53.759Z,79.60
2019-02-18T18:42:25.502Z,79.60
2019-02-18T18:44:57.340Z,80.00
2019-02-18T18:47:30.210Z,80.20
2019-02-18T18:50:02.198Z,80.20
2019-02-18T18:52:34.371Z,80.40
2019-02-18T18:55:10.742Z,80.40
2019-02-18T18:57:42.451Z,80.40
2019-02-18T19:00:16.968Z,80.50
2019-02-18T19:02:48.982Z,80.70
2019-02-18T19:05:21.718Z,80.60
2019-02-18T19:07:53.784Z,80.50
2019-02-18T19:10:25.810Z,80.70
2019-02-18T19:12:57.484Z,80.90
2019-02-18T19:15:29.154Z,81.00
2019-02-18T19:18:04.519Z,81.20
2019-02-18T19:20:36.302Z,81.40
2019-02-18T19:23:08.057Z,81.50
2019-02-18T19:25:39.994Z,81.60
2019-02-18T19:28:12.216Z,81.60
2019-02-18T19:30:43.776Z,81.80
2019-02-18T19:33:16.176Z,82.00
2019-02-18T19:35:47.802Z,82.30
2019-02-18T19:38:19.583Z,82.50
2019-02-18T19:40:51.746Z,82.90
2019-02-18T19:43:23.591Z,83.10
2019-02-18T19:45:55.397Z,83.00
2019-02-18T19:48:27.136Z,83.40
2019-02-18T19:50:58.982Z,83.50
2019-02-18T19:53:30.731Z,83.60
2019-02-18T19:56:02.588Z,83.80
2019-02-18T19:58:34.472Z,83.80
2019-02-18T20:01:06.341Z,84.00
2019-02-18T20:03:38.196Z,84.20
2019-02-18T20:06:09.913Z,84.30
2019-02-18T20:08:42.363Z,84.50
2019-02-18T20:11:14.126Z,84.80
2019-02-18T20:13:45.917Z,85.00
2019-02-18T20:16:17.708Z,85.20
2019-02-18T20:18:49.346Z,85.40
2019-02-18T20:21:21.176Z,85.60
2019-02-18T20:23:53.004Z,85.70
2019-02-18T20:26:25.216Z,85.90
2019-02-18T20:28:57.940Z,86.00
2019-02-18T20:31:29.545Z,86.10
2019-02-18T20:34:02.455Z,86.30
2019-02-18T20:36:34.654Z,86.50
2019-02-18T20:39:07.656Z,86.50
2019-02-18T20:41:39.718Z,86.70
2019-02-18T20:44:13.688Z,87.00
2019-02-18T20:46:45.544Z,87.30
2019-02-18T20:49:18.402Z,87.20
2019-02-18T20:51:50.618Z,87.40
2019-02-18T20:54:22.892Z,88.40
2019-02-18T20:56:54.672Z,87.70
2019-02-18T20:59:26.927Z,87.80
2019-02-18T21:01:58.965Z,88.00
2019-02-18T21:04:31.306Z,88.00
2019-02-18T21:07:03.442Z,88.10
2019-02-18T21:09:35.267Z,88.20
2019-02-18T21:12:07.007Z,88.20
2019-02-18T21:14:41.006Z,88.40
2019-02-18T21:17:13.092Z,88.60
2019-02-18T21:19:44.988Z,88.90
2019-02-18T21:22:16.818Z,88.90
2019-02-18T21:24:48.968Z,89.00
2019-02-18T21:27:20.727Z,89.20
2019-02-18T21:29:52.348Z,89.30
2019-02-18T21:32:24.175Z,89.50
2019-02-18T21:34:56.098Z,89.60
2019-02-18T21:37:27.852Z,89.70
2019-02-18T21:40:01.671Z,89.80
2019-02-18T21:42:33.796Z,89.90
2019-02-18T21:45:05.608Z,90.00
2019-02-18T21:47:40.755Z,90.00
2019-02-18T21:50:12.722Z,90.00
2019-02-18T21:52:44.704Z,90.10
2019-02-18T21:55:16.671Z,90.20
2019-02-18T21:57:48.372Z,90.20
2019-02-18T22:00:24.767Z,90.30
2019-02-18T22:02:56.651Z,90.30
2019-02-18T22:05:28.876Z,90.40
2019-02-18T22:08:00.806Z,90.40
2019-02-18T22:10:32.918Z,90.40
2019-02-18T22:13:04.718Z,90.40
2019-02-18T22:15:37.328Z,90.50
2019-02-18T22:18:08.942Z,90.50
2019-02-18T22:20:40.650Z,90.50
2019-02-18T22:23:12.343Z,90.60
2019-02-18T22:25:44.037Z,90.70
2019-02-18T22:28:16.904Z,90.70
2019-02-18T22:30:53.931Z,90.70
2019-02-18T22:33:25.904Z,90.80
2019-02-18T22:35:57.703Z,90.80
2019-02-18T22:38:29.344Z,90.90
2019-02-18T22:41:01.165Z,90.90
2019-02-18T22:43:35.529Z,91.00
2019-02-18T22:46:06.953Z,91.10
2019-02-18T22:48:38.802Z,91.00
2019-02-18T22:51:14.404Z,91.10
2019-02-18T22:53:46.622Z,91.10
2019-02-18T22:56:21.377Z,91.10
2019-02-18T22:58:54.365Z,91.10
2019-02-18T23:01:26.712Z,91.20
2019-02-18T23:04:00.725Z,91.30
2019-02-18T23:06:32.673Z,91.30
2019-02-18T23:09:13.657Z,91.30
2019-02-18T23:11:47.179Z,91.40
2019-02-18T23:14:22.901Z,91.40
2019-02-18T23:16:54.720Z,91.40
2019-02-18T23:19:26.340Z,91.50
2019-02-18T23:21:57.506Z,91.50
2019-02-18T23:24:29.175Z,91.50
2019-02-18T23:27:00.826Z,91.60
2019-02-18T23:29:33.249Z,91.60
2019-02-18T23:32:04.738Z,92.00
2019-02-18T23:34:36.421Z,91.70
2019-02-18T23:37:09.504Z,91.60
2019-02-18T23:39:41.775Z,91.70
2019-02-18T23:42:14.350Z,91.70
2019-02-18T23:44:46.290Z,91.80
2019-02-18T23:47:21.504Z,91.80
2019-02-18T23:49:54.081Z,91.80
2019-02-18T23:52:26.950Z,91.90
2019-02-18T23:54:58.705Z,91.90
2019-02-18T23:57:30.641Z,91.90
